createdAt,value
2022-10-21T00:02:11.891Z,17.80
2022-10-21T00:04:41.656Z,17.53
2022-10-21T00:07:11.705Z,18.65
2022-10-21T00:09:41.466Z,18.23
2022-10-21T00:12:12.080Z,19.58
2022-10-21T00:14:41.837Z,18.07
2022-10-21T00:17:11.565Z,19.10
2022-10-21T00:19:42.684Z,16.82
2022-10-21T00:22:12.765Z,18.32
2022-10-21T00:24:42.597Z,17.70
2022-10-21T00:27:12.640Z,18.12
2022-10-21T00:29:42.693Z,17.98
2022-10-21T00:32:12.441Z,18.42
2022-10-21T00:34:43.269Z,17.70
2022-10-21T00:37:13.895Z,16.70
2022-10-21T00:39:43.709Z,17.93
2022-10-21T00:42:19.225Z,18.53
2022-10-21T00:45:09.522Z,18.47
2022-10-21T00:47:51.215Z,18.27
2022-10-21T00:50:53.544Z,17.40
2022-10-21T00:53:24.238Z,17.65
2022-10-21T00:55:57.245Z,17.13
2022-10-21T00:58:29.541Z,18.23
2022-10-21T01:01:01.617Z,18.50
2022-10-21T01:03:32.896Z,17.92
2022-10-21T01:06:05.584Z,17.27
2022-10-21T01:08:36.183Z,18.20
2022-10-21T01:11:08.429Z,17.97
2022-10-21T01:13:50.037Z,19.30
2022-10-21T01:16:30.980Z,17.60
2022-10-21T01:19:15.359Z,18.20
2022-10-21T01:22:06.028Z,18.90
2022-10-21T01:24:50.644Z,18.67
2022-10-21T01:27:26.727Z,18.57
2022-10-21T01:30:10.726Z,20.33
2022-10-21T01:33:01.651Z,19.20
2022-10-21T01:35:54.770Z,18.52
2022-10-21T01:38:27.314Z,18.70
2022-10-21T01:41:17.918Z,19.03
2022-10-21T01:44:02.528Z,20.57
2022-10-21T01:46:38.171Z,19.75
2022-10-21T01:49:16.682Z,20.37
2022-10-21T01:51:47.072Z,19.67
2022-10-21T01:54:25.636Z,19.48
2022-10-21T01:56:57.334Z,20.05
2022-10-21T01:59:29.658Z,20.17
2022-10-21T02:02:02.818Z,18.97
2022-10-21T02:04:34.860Z,19.75
2022-10-21T02:07:05.213Z,19.45
2022-10-21T02:09:34.962Z,20.03
2022-10-21T02:12:07.420Z,20.35
2022-10-21T02:14:45.511Z,20.97
2022-10-21T02:17:18.931Z,21.07
2022-10-21T02:19:48.713Z,21.45
2022-10-21T02:22:21.583Z,20.30
2022-10-21T02:25:03.070Z,20.77
2022-10-21T02:27:33.072Z,20.77
2022-10-21T02:30:03.345Z,20.60
2022-10-21T02:32:41.871Z,21.27
2022-10-21T02:35:26.479Z,22.25
2022-10-21T02:38:04.450Z,21.30
2022-10-21T02:40:40.057Z,22.70
2022-10-21T02:43:15.637Z,22.13
2022-10-21T02:45:48.318Z,22.15
2022-10-21T02:48:18.210Z,21.68
2022-10-21T02:50:47.709Z,23.90
2022-10-21T02:53:17.843Z,22.42
2022-10-21T02:55:49.235Z,22.10
2022-10-21T02:58:19.014Z,22.20
2022-10-21T03:00:48.841Z,22.80
2022-10-21T03:03:18.763Z,21.47
2022-10-21T03:05:48.746Z,22.43
2022-10-21T03:08:18.473Z,22.53
2022-10-21T03:10:53.044Z,21.60
2022-10-21T03:13:22.622Z,22.53
2022-10-21T03:15:52.839Z,22.70
2022-10-21T03:18:22.605Z,22.50
2022-10-21T03:20:53.338Z,22.17
2022-10-21T03:23:23.096Z,21.00
2022-10-21T03:25:52.870Z,20.90
2022-10-21T03:28:22.660Z,21.30
2022-10-21T03:30:52.408Z,21.57
2022-10-21T03:33:22.188Z,21.47
2022-10-21T03:35:51.995Z,21.60
2022-10-21T03:38:21.827Z,21.53
2022-10-21T03:40:52.298Z,20.50
2022-10-21T03:43:22.065Z,21.17
2022-10-21T03:45:51.835Z,22.43
2022-10-21T03:48:21.587Z,21.73
2022-10-21T03:50:52.105Z,21.57
2022-10-21T03:53:38.127Z,21.77
2022-10-21T03:55:56.681Z,21.40
2022-10-21T03:58:25.522Z,22.10
2022-10-21T04:00:56.206Z,21.30
2022-10-21T04:03:25.959Z,21.17
2022-10-21T04:05:55.786Z,20.00
2022-10-21T04:08:25.520Z,21.30
2022-10-21T04:10:56.816Z,21.23
2022-10-21T04:13:26.638Z,22.40
2022-10-21T04:15:58.929Z,22.97
2022-10-21T04:18:28.690Z,22.10
2022-10-21T04:20:58.440Z,20.73
2022-10-21T04:23:28.212Z,22.63
2022-10-21T04:25:57.998Z,21.10
2022-10-21T04:28:27.519Z,22.50
2022-10-21T04:30:57.279Z,21.73
2022-10-21T04:33:27.626Z,20.77
2022-10-21T04:35:59.082Z,19.67
2022-10-21T04:38:30.514Z,20.67
2022-10-21T04:41:02.855Z,21.10
2022-10-21T04:43:32.924Z,20.43
2022-10-21T04:46:02.693Z,19.60
2022-10-21T04:48:32.480Z,20.77
2022-10-21T04:51:02.239Z,19.37
2022-10-21T04:53:31.988Z,21.00
2022-10-21T04:56:01.819Z,19.83
2022-10-21T04:58:31.655Z,20.50
2022-10-21T05:01:01.509Z,19.67
2022-10-21T05:03:31.979Z,19.20
2022-10-21T05:06:01.702Z,19.27
2022-10-21T05:08:31.551Z,19.97
2022-10-21T05:11:02.349Z,19.73
2022-10-21T05:13:33.439Z,19.13
2022-10-21T05:16:04.737Z,18.80
2022-10-21T05:18:34.474Z,19.50
2022-10-21T05:21:04.503Z,19.03
2022-10-21T05:23:34.550Z,18.32
2022-10-21T05:26:07.056Z,19.04
2022-10-21T05:28:37.547Z,19.50
2022-10-21T05:31:07.303Z,18.77
2022-10-21T05:33:37.121Z,18.70
2022-10-21T05:36:08.591Z,20.90
2022-10-21T05:38:38.343Z,17.97
2022-10-21T05:41:08.107Z,19.77
2022-10-21T05:43:38.805Z,19.30
2022-10-21T05:46:09.969Z,18.85
2022-10-21T05:48:39.864Z,18.70
2022-10-21T05:51:09.601Z,19.67
2022-10-21T05:53:39.811Z,19.25
2022-10-21T05:56:12.134Z,18.50
2022-10-21T05:58:41.867Z,18.53
2022-10-21T06:01:12.297Z,19.32
2022-10-21T06:03:42.094Z,18.73
2022-10-21T06:06:11.757Z,18.40
2022-10-21T06:08:41.399Z,17.25
2022-10-21T06:11:13.926Z,19.53
2022-10-21T06:13:44.532Z,18.47
2022-10-21T06:16:15.127Z,18.15
2022-10-21T06:18:45.119Z,18.70
2022-10-21T06:21:14.884Z,17.17
2022-10-21T06:23:44.774Z,16.90
2022-10-21T06:26:16.773Z,16.90
2022-10-21T06:28:46.497Z,17.40
2022-10-21T06:31:18.560Z,17.00
2022-10-21T06:33:48.790Z,16.77
2022-10-21T06:36:18.747Z,17.70
2022-10-21T06:38:48.578Z,18.53
2022-10-21T06:41:18.872Z,17.60
2022-10-21T06:43:48.612Z,16.90
2022-10-21T06:46:18.719Z,17.02
2022-10-21T06:48:48.249Z,16.60
2022-10-21T06:51:21.036Z,17.80
2022-10-21T06:53:56.543Z,18.00
2022-10-21T06:56:27.129Z,16.60
2022-10-21T06:58:58.989Z,18.00
2022-10-21T07:01:48.326Z,16.67
2022-10-21T07:04:10.796Z,18.05
2022-10-21T07:06:40.608Z,15.80
2022-10-21T07:09:10.933Z,17.80
2022-10-21T07:11:40.815Z,17.83
2022-10-21T07:14:13.264Z,17.50
2022-10-21T07:16:43.013Z,17.57
2022-10-21T07:19:12.753Z,17.60
2022-10-21T07:21:42.613Z,16.30
2022-10-21T07:24:12.197Z,17.20
2022-10-21T07:26:42.094Z,16.87
2022-10-21T07:29:11.875Z,16.20
2022-10-21T07:31:41.808Z,16.97
2022-10-21T07:34:13.375Z,16.33
2022-10-21T07:36:47.685Z,17.00
2022-10-21T07:39:19.005Z,16.47
2022-10-21T07:41:51.436Z,16.60
2022-10-21T07:44:22.717Z,14.30
2022-10-21T07:46:54.121Z,16.25
2022-10-21T07:49:25.537Z,16.03
2022-10-21T07:51:55.296Z,15.80
2022-10-21T07:54:25.162Z,14.90
2022-10-21T07:56:54.911Z,14.97
2022-10-21T07:59:25.352Z,15.43
2022-10-21T08:01:55.205Z,14.53
2022-10-21T08:04:27.414Z,14.50
2022-10-21T08:06:57.440Z,14.07
2022-10-21T08:09:27.381Z,13.97
2022-10-21T08:11:57.964Z,13.93
2022-10-21T08:14:27.683Z,13.38
2022-10-21T08:16:57.528Z,13.90
2022-10-21T08:19:28.919Z,13.40
2022-10-21T08:22:00.793Z,14.43
2022-10-21T08:24:30.542Z,14.40
2022-10-21T08:27:00.445Z,13.40
2022-10-21T08:29:30.566Z,13.28
2022-10-21T08:32:00.421Z,13.10
2022-10-21T08:34:30.168Z,12.70
2022-10-21T08:36:59.920Z,12.13
2022-10-21T08:39:29.752Z,12.37
2022-10-21T08:42:17.038Z,12.63
2022-10-21T08:44:52.422Z,12.43
2022-10-21T08:47:34.429Z,12.20
2022-10-21T08:50:19.047Z,12.73
2022-10-21T08:52:51.847Z,12.23
2022-10-21T08:55:33.327Z,11.50
2022-10-21T08:58:04.928Z,12.33
2022-10-21T09:00:40.264Z,11.73
2022-10-21T09:03:16.115Z,12.90
2022-10-21T09:05:49.140Z,11.90
2022-10-21T09:08:27.508Z,11.53
2022-10-21T09:11:05.734Z,11.83
2022-10-21T09:14:02.244Z,11.87
2022-10-21T09:16:52.483Z,11.13
2022-10-21T09:19:43.051Z,12.23
2022-10-21T09:22:39.406Z,12.28
2022-10-21T09:25:21.315Z,11.70
2022-10-21T09:27:56.747Z,12.30
2022-10-21T09:30:24.215Z,11.73
2022-10-21T09:32:59.484Z,11.70
2022-10-21T09:35:43.591Z,11.27
2022-10-21T09:38:19.480Z,11.03
2022-10-21T09:40:51.916Z,11.43
2022-10-21T09:43:24.715Z,11.80
2022-10-21T09:45:55.229Z,11.80
2022-10-21T09:49:06.927Z,11.43
2022-10-21T09:51:21.449Z,11.97
2022-10-21T09:53:57.063Z,11.65
2022-10-21T09:56:44.140Z,11.13
2022-10-21T09:59:21.226Z,13.07
2022-10-21T10:01:51.331Z,12.37
2022-10-21T10:04:26.828Z,11.88
2022-10-21T10:06:58.060Z,11.47
2022-10-21T10:09:37.422Z,11.63
2022-10-21T10:12:13.860Z,10.93
2022-10-21T10:14:46.369Z,10.45
2022-10-21T10:17:22.118Z,10.77
2022-10-21T10:20:14.842Z,10.83
2022-10-21T10:22:47.786Z,9.97
2022-10-21T10:25:24.953Z,10.07
2022-10-21T10:28:06.835Z,9.60
2022-10-21T10:30:45.234Z,9.40
2022-10-21T10:33:23.438Z,8.87
2022-10-21T10:35:58.693Z,7.83
2022-10-21T10:38:42.924Z,7.20
2022-10-21T10:41:15.408Z,7.75
2022-10-21T10:43:56.793Z,8.68
2022-10-21T10:46:32.027Z,8.23
2022-10-21T10:49:16.420Z,8.00
2022-10-21T10:51:50.923Z,7.50
2022-10-21T10:54:24.074Z,7.75
2022-10-21T10:56:58.959Z,7.23
2022-10-21T10:59:31.833Z,7.23
2022-10-21T11:02:11.404Z,7.50
2022-10-21T11:05:18.481Z,8.70
2022-10-21T11:07:52.994Z,9.73
2022-10-21T11:10:46.537Z,9.68
2022-10-21T11:13:19.347Z,9.17
2022-10-21T11:16:12.222Z,9.13
2022-10-21T11:19:11.979Z,9.17
2022-10-21T11:21:53.443Z,8.33
2022-10-21T11:24:25.953Z,9.10
2022-10-21T11:27:26.697Z,8.40
2022-10-21T11:30:05.249Z,8.60
2022-10-21T11:33:12.406Z,7.60
2022-10-21T11:35:57.809Z,7.47
2022-10-21T11:38:34.847Z,7.00
2022-10-21T11:41:27.213Z,6.77
2022-10-21T11:44:12.458Z,7.25
2022-10-21T11:47:05.749Z,6.63
2022-10-21T11:49:47.518Z,6.70
2022-10-21T11:52:45.036Z,5.90
2022-10-21T11:55:35.205Z,5.60
2022-10-21T11:58:12.053Z,5.73
2022-10-21T12:00:56.802Z,6.17
2022-10-21T12:03:29.587Z,5.73
2022-10-21T12:06:10.055Z,5.53
2022-10-21T12:08:57.514Z,5.37
2022-10-21T12:14:30.859Z,5.47
2022-10-21T12:17:01.056Z,4.73
2022-10-21T12:19:31.037Z,4.73
2022-10-21T12:22:01.417Z,4.20
2022-10-21T12:24:39.999Z,3.47
2022-10-21T12:27:18.724Z,3.97
2022-10-21T12:30:08.498Z,3.60
2022-10-21T12:33:02.349Z,3.20
2022-10-21T12:35:51.545Z,2.87
2022-10-21T12:38:44.993Z,2.77
2022-10-21T12:41:29.917Z,2.57
2022-10-21T12:44:05.359Z,2.40
2022-10-21T12:46:49.604Z,2.00
2022-10-21T12:49:32.474Z,2.10
2022-10-21T12:52:11.335Z,1.70
2022-10-21T12:54:49.730Z,1.53
2022-10-21T12:57:25.525Z,1.93
2022-10-21T13:00:14.139Z,4.80
2022-10-21T13:03:06.235Z,1.80
2022-10-21T13:05:41.752Z,1.77
2022-10-21T13:08:24.175Z,2.74
2022-10-21T13:11:08.695Z,2.00
2022-10-21T13:13:43.651Z,2.30
2022-10-21T13:16:25.109Z,2.17
2022-10-21T13:18:56.651Z,1.43
2022-10-21T13:21:32.121Z,2.22
2022-10-21T13:24:13.759Z,2.57
2022-10-21T13:27:06.427Z,2.33
2022-10-21T13:29:45.172Z,2.20
2022-10-21T13:32:21.778Z,2.00
2022-10-21T13:35:09.390Z,2.63
2022-10-21T13:37:45.284Z,1.87
2022-10-21T13:42:51.559Z,1.27
2022-10-21T13:45:27.025Z,1.30
2022-10-21T13:48:05.466Z,1.07
2022-10-21T13:50:40.607Z,1.00
2022-10-21T13:53:34.965Z,0.80
2022-10-21T13:56:09.454Z,1.10
2022-10-21T13:58:40.578Z,0.90
2022-10-21T14:01:13.663Z,0.70
2022-10-21T14:03:43.933Z,0.57
2022-10-21T14:06:26.748Z,0.70
2022-10-21T14:08:56.850Z,0.70
2022-10-21T14:11:33.435Z,0.83
2022-10-21T14:14:04.307Z,0.60
2022-10-21T14:16:36.841Z,0.80
2022-10-21T14:19:09.605Z,0.70
2022-10-21T14:21:41.928Z,0.70
2022-10-21T14:24:36.150Z,0.80
2022-10-21T14:27:07.116Z,0.80
2022-10-21T14:29:37.488Z,0.95
2022-10-21T14:32:08.869Z,0.70
2022-10-21T14:34:41.722Z,0.60
2022-10-21T14:37:14.501Z,0.60
2022-10-21T14:39:44.239Z,0.63
2022-10-21T14:42:16.830Z,0.80
2022-10-21T14:44:48.147Z,0.83
2022-10-21T14:47:26.355Z,0.80
2022-10-21T14:50:01.063Z,0.70
2022-10-21T14:52:37.109Z,1.33
2022-10-21T14:55:11.215Z,0.80
2022-10-21T14:57:49.813Z,0.77
2022-10-21T15:00:34.557Z,1.00
2022-10-21T15:03:04.455Z,1.10
2022-10-21T15:05:47.873Z,0.63
2022-10-21T15:08:29.404Z,0.97
2022-10-21T15:11:12.075Z,1.10
2022-10-21T15:13:44.858Z,0.70
2022-10-21T15:16:22.166Z,1.50
2022-10-21T15:18:53.888Z,1.40
2022-10-21T15:21:38.262Z,0.98
2022-10-21T15:24:09.990Z,1.30
2022-10-21T15:26:42.066Z,1.12
2022-10-21T15:29:23.979Z,1.40
2022-10-21T15:31:54.019Z,1.10
2022-10-21T15:34:23.532Z,1.30
2022-10-21T15:36:53.506Z,1.40
2022-10-21T15:39:23.315Z,1.30
2022-10-21T15:41:55.172Z,1.57
2022-10-21T15:44:27.671Z,1.30
2022-10-21T15:47:00.705Z,1.10
2022-10-21T15:49:37.819Z,1.10
2022-10-21T15:52:10.864Z,1.08
2022-10-21T15:54:40.694Z,1.80
2022-10-21T15:57:21.978Z,1.53
2022-10-21T15:59:51.722Z,2.67
2022-10-21T16:02:21.194Z,2.70
2022-10-21T16:04:52.741Z,4.37
2022-10-21T16:07:25.335Z,7.00
2022-10-21T16:09:55.220Z,6.03
2022-10-21T16:12:24.854Z,4.83
2022-10-21T16:14:54.976Z,5.20
2022-10-21T16:17:26.339Z,4.67
2022-10-21T16:19:56.098Z,4.53
2022-10-21T16:22:25.876Z,4.92
2022-10-21T16:24:55.696Z,4.00
2022-10-21T16:27:43.437Z,4.57
2022-10-21T16:29:57.481Z,4.60
2022-10-21T16:32:27.381Z,3.20
2022-10-21T16:34:57.128Z,2.13
2022-10-21T16:37:28.564Z,2.50
2022-10-21T16:39:58.381Z,3.50
2022-10-21T16:42:28.169Z,3.42
2022-10-21T16:44:57.957Z,3.60
2022-10-21T16:47:27.710Z,3.23
2022-10-21T16:50:00.141Z,3.30
2022-10-21T16:52:29.899Z,3.77
2022-10-21T16:54:59.930Z,3.35
2022-10-21T16:57:29.679Z,2.80
2022-10-21T16:59:59.502Z,3.00
2022-10-21T17:02:29.610Z,2.77
2022-10-21T17:04:59.373Z,2.93
2022-10-21T17:07:30.746Z,3.03
2022-10-21T17:10:01.912Z,2.93
2022-10-21T17:12:33.216Z,3.12
2022-10-21T17:15:03.661Z,3.60
2022-10-21T17:17:33.754Z,3.80
2022-10-21T17:20:03.738Z,3.30
2022-10-21T17:22:33.249Z,3.43
2022-10-21T17:25:03.052Z,3.80
2022-10-21T17:27:32.534Z,3.80
2022-10-21T17:30:02.320Z,3.93
2022-10-21T17:32:32.185Z,5.57
2022-10-21T17:35:02.053Z,4.27
2022-10-21T17:37:32.128Z,4.25
2022-10-21T17:40:01.869Z,5.00
2022-10-21T17:42:31.912Z,4.67
2022-10-21T17:45:03.797Z,4.78
2022-10-21T17:47:33.736Z,4.42
2022-10-21T17:50:04.050Z,4.60
2022-10-21T17:52:33.893Z,5.50
2022-10-21T17:55:04.423Z,6.30
2022-10-21T17:57:34.614Z,6.97
2022-10-21T18:00:06.434Z,10.05
2022-10-21T18:02:38.354Z,11.33
2022-10-21T18:05:10.568Z,9.67
2022-10-21T18:07:41.033Z,7.92
2022-10-21T18:10:10.929Z,7.35
2022-10-21T18:12:40.950Z,6.10
2022-10-21T18:15:11.052Z,5.17
2022-10-21T18:17:41.398Z,4.60
2022-10-21T18:20:13.786Z,4.78
2022-10-21T18:22:43.542Z,4.50
2022-10-21T18:25:13.108Z,4.10
2022-10-21T18:30:12.932Z,4.60
2022-10-21T18:32:43.018Z,5.37
2022-10-21T18:35:12.689Z,5.30
2022-10-21T18:37:43.409Z,5.10
2022-10-21T18:40:15.456Z,4.42
2022-10-21T18:42:45.923Z,3.95
2022-10-21T18:45:15.627Z,4.00
2022-10-21T18:47:47.041Z,3.33
2022-10-21T18:50:17.637Z,3.87
2022-10-21T18:52:47.240Z,3.65
2022-10-21T18:55:16.998Z,3.60
2022-10-21T18:57:46.795Z,3.53
2022-10-21T19:00:16.587Z,3.40
2022-10-21T19:02:46.339Z,3.40
2022-10-21T19:05:15.855Z,3.47
2022-10-21T19:07:45.844Z,3.27
2022-10-21T19:10:15.633Z,3.43
2022-10-21T19:12:45.669Z,3.20
2022-10-21T19:15:15.371Z,2.97
2022-10-21T19:17:45.144Z,4.50
2022-10-21T19:20:17.407Z,3.16
2022-10-21T19:22:47.702Z,3.87
2022-10-21T19:25:17.963Z,3.42
2022-10-21T19:27:47.771Z,3.13
2022-10-21T19:30:18.806Z,3.60
2022-10-21T19:32:48.825Z,3.50
2022-10-21T19:35:18.997Z,4.05
2022-10-21T19:37:48.718Z,3.33
2022-10-21T19:40:18.254Z,2.92
2022-10-21T19:42:48.162Z,3.20
2022-10-21T19:45:18.109Z,2.98
2022-10-21T19:47:47.656Z,3.50
2022-10-21T19:50:18.081Z,2.87
2022-10-21T19:52:47.826Z,3.17
2022-10-21T19:55:19.062Z,3.75
2022-10-21T19:57:49.091Z,3.15
2022-10-21T20:00:18.609Z,3.22
2022-10-21T20:02:48.647Z,3.25
2022-10-21T20:05:18.320Z,2.90
2022-10-21T20:07:48.134Z,3.83
2022-10-21T20:10:19.587Z,3.37
2022-10-21T20:12:49.057Z,3.30
2022-10-21T20:15:19.030Z,3.10
2022-10-21T20:17:48.979Z,2.90
2022-10-21T20:20:18.683Z,2.83
2022-10-21T20:22:48.749Z,4.45
2022-10-21T20:25:18.985Z,3.40
2022-10-21T20:27:49.010Z,3.30
2022-10-21T20:30:19.148Z,3.15
2022-10-21T20:32:50.823Z,3.30
2022-10-21T20:35:21.152Z,2.72
2022-10-21T20:37:51.217Z,3.22
2022-10-21T20:40:20.921Z,3.20
2022-10-21T20:42:51.004Z,3.30
2022-10-21T20:45:21.173Z,3.60
2022-10-21T20:47:50.677Z,3.80
2022-10-21T20:50:20.110Z,3.30
2022-10-21T20:52:50.225Z,3.80
2022-10-21T20:55:20.121Z,3.50
2022-10-21T20:57:50.152Z,3.02
2022-10-21T21:00:19.942Z,3.53
2022-10-21T21:02:49.756Z,3.27
2022-10-21T21:05:19.851Z,3.22
2022-10-21T21:07:49.608Z,3.10
2022-10-21T21:10:19.344Z,3.97
2022-10-21T21:12:49.117Z,3.23
2022-10-21T21:15:18.890Z,3.40
2022-10-21T21:17:51.922Z,3.50
2022-10-21T21:20:21.349Z,2.93
2022-10-21T21:22:51.113Z,2.77
2022-10-21T21:25:20.855Z,3.22
2022-10-21T21:27:50.888Z,3.42
2022-10-21T21:30:20.995Z,3.27
2022-10-21T21:32:50.717Z,3.10
2022-10-21T21:35:20.457Z,3.05
2022-10-21T21:37:50.262Z,3.17
2022-10-21T21:40:20.301Z,3.60
2022-10-21T21:42:50.032Z,3.20
2022-10-21T21:45:19.487Z,3.02
2022-10-21T21:47:49.243Z,3.50
2022-10-21T21:50:19.334Z,3.50
2022-10-21T21:52:49.361Z,3.50
2022-10-21T21:55:19.468Z,2.97
2022-10-21T21:57:49.201Z,3.63
2022-10-21T22:00:18.912Z,3.00
2022-10-21T22:02:48.662Z,3.27
2022-10-21T22:05:22.470Z,3.65
2022-10-21T22:07:51.365Z,3.83
2022-10-21T22:10:21.111Z,3.87
2022-10-21T22:12:51.167Z,3.60
2022-10-21T22:15:43.362Z,4.00
2022-10-21T22:17:53.778Z,3.95
2022-10-21T22:20:23.653Z,3.67
2022-10-21T22:22:53.443Z,3.47
2022-10-21T22:25:22.894Z,3.80
2022-10-21T22:27:52.936Z,3.80
2022-10-21T22:30:22.710Z,4.00
2022-10-21T22:32:52.754Z,4.00
2022-10-21T22:35:22.190Z,4.33
2022-10-21T22:37:52.262Z,3.80
2022-10-21T22:40:21.860Z,4.10
2022-10-21T22:42:51.665Z,3.87
2022-10-21T22:45:21.394Z,4.42
2022-10-21T22:47:51.438Z,4.30
2022-10-21T22:50:21.526Z,3.87
2022-10-21T22:52:51.278Z,4.20
2022-10-21T22:55:21.112Z,4.05
2022-10-21T22:57:50.922Z,4.63
2022-10-21T23:00:20.657Z,4.25
2022-10-21T23:02:50.505Z,4.13
2022-10-21T23:05:19.947Z,4.30
2022-10-21T23:07:49.901Z,4.20
2022-10-21T23:10:23.316Z,4.00
2022-10-21T23:12:53.080Z,3.93
2022-10-21T23:15:22.768Z,4.57
2022-10-21T23:17:52.540Z,4.77
2022-10-21T23:20:22.259Z,5.00
2022-10-21T23:22:52.010Z,4.43
2022-10-21T23:25:22.897Z,4.70
2022-10-21T23:27:52.712Z,4.70
2022-10-21T23:30:22.474Z,5.10
2022-10-21T23:32:52.310Z,4.57
2022-10-21T23:35:23.677Z,4.60
2022-10-21T23:37:53.427Z,5.07
2022-10-21T23:40:23.190Z,5.27
2022-10-21T23:42:53.229Z,5.78
2022-10-21T23:45:22.962Z,5.28
2022-10-21T23:47:53.098Z,5.20
2022-10-21T23:50:23.067Z,5.27
2022-10-21T23:52:52.522Z,5.17
2022-10-21T23:55:22.026Z,5.62
2022-10-21T23:57:51.822Z,5.53
